sensor_id;sensor_type;location;lat;lon;timestamp;P1;durP1;ratioP1;P2;durP2;ratioP2
51981;SDS011;37998;53.416;6.730;2024-01-15T00:00:14;14.48;;;2.75;;
51981;SDS011;37998;53.416;6.730;2024-01-15T00:02:41;12.80;;;2.95;;
51981;SDS011;37998;53.416;6.730;2024-01-15T00:05:07;8.70;;;2.63;;
51981;SDS011;37998;53.416;6.730;2024-01-15T00:07:33;16.80;;;2.63;;
51981;SDS011;37998;53.416;6.730;2024-01-15T00:09:59;11.57;;;2.40;;
51981;SDS011;37998;53.416;6.730;2024-01-15T00:12:24;10.15;;;2.08;;
51981;SDS011;37998;53.416;6.730;2024-01-15T00:14:50;12.18;;;2.90;;
51981;SDS011;37998;53.416;6.730;2024-01-15T00:17:16;14.10;;;2.40;;
51981;SDS011;37998;53.416;6.730;2024-01-15T00:19:42;21.27;;;3.38;;
51981;SDS011;37998;53.416;6.730;2024-01-15T00:22:08;13.85;;;3.08;;
51981;SDS011;37998;53.416;6.730;2024-01-15T00:24:34;19.35;;;3.55;;
51981;SDS011;37998;53.416;6.730;2024-01-15T00:27:00;19.20;;;4.03;;
51981;SDS011;37998;53.416;6.730;2024-01-15T00:29:25;14.13;;;3.35;;
51981;SDS011;37998;53.416;6.730;2024-01-15T00:31:51;25.42;;;4.95;;
51981;SDS011;37998;53.416;6.730;2024-01-15T00:34:17;22.63;;;4.72;;
51981;SDS011;37998;53.416;6.730;2024-01-15T00:36:43;25.80;;;4.50;;
51981;SDS011;37998;53.416;6.730;2024-01-15T00:39:09;23.23;;;4.00;;
51981;SDS011;37998;53.416;6.730;2024-01-15T00:41:36;28.08;;;4.65;;
51981;SDS011;37998;53.416;6.730;2024-01-15T00:44:02;22.55;;;5.55;;
51981;SDS011;37998;53.416;6.730;2024-01-15T00:46:28;17.77;;;3.85;;
51981;SDS011;37998;53.416;6.730;2024-01-15T00:48:54;14.25;;;3.35;;
51981;SDS011;37998;53.416;6.730;2024-01-15T00:51:20;20.77;;;3.65;;
51981;SDS011;37998;53.416;6.730;2024-01-15T00:53:46;20.60;;;3.88;;
51981;SDS011;37998;53.416;6.730;2024-01-15T00:56:11;14.93;;;2.65;;
51981;SDS011;37998;53.416;6.730;2024-01-15T00:58:37;9.23;;;1.65;;
51981;SDS011;37998;53.416;6.730;2024-01-15T01:01:03;18.85;;;1.90;;
51981;SDS011;37998;53.416;6.730;2024-01-15T01:03:29;11.98;;;2.72;;
51981;SDS011;37998;53.416;6.730;2024-01-15T01:05:55;14.25;;;2.58;;
51981;SDS011;37998;53.416;6.730;2024-01-15T01:08:21;16.98;;;4.15;;
51981;SDS011;37998;53.416;6.730;2024-01-15T01:10:47;15.88;;;2.80;;
51981;SDS011;37998;53.416;6.730;2024-01-15T01:13:13;16.77;;;2.90;;
51981;SDS011;37998;53.416;6.730;2024-01-15T01:15:38;19.92;;;3.20;;
51981;SDS011;37998;53.416;6.730;2024-01-15T01:18:04;15.35;;;3.08;;
51981;SDS011;37998;53.416;6.730;2024-01-15T01:20:30;26.35;;;4.00;;
51981;SDS011;37998;53.416;6.730;2024-01-15T01:22:56;14.93;;;3.95;;
51981;SDS011;37998;53.416;6.730;2024-01-15T01:25:22;18.45;;;3.97;;
51981;SDS011;37998;53.416;6.730;2024-01-15T01:27:48;16.30;;;3.35;;
51981;SDS011;37998;53.416;6.730;2024-01-15T01:30:14;16.25;;;3.25;;
51981;SDS011;37998;53.416;6.730;2024-01-15T01:32:40;22.40;;;3.55;;
51981;SDS011;37998;53.416;6.730;2024-01-15T01:35:06;12.90;;;2.70;;
51981;SDS011;37998;53.416;6.730;2024-01-15T01:37:31;16.67;;;3.00;;
51981;SDS011;37998;53.416;6.730;2024-01-15T01:39:59;21.35;;;3.63;;
51981;SDS011;37998;53.416;6.730;2024-01-15T01:42:25;26.88;;;4.35;;
51981;SDS011;37998;53.416;6.730;2024-01-15T01:44:51;22.85;;;4.78;;
51981;SDS011;37998;53.416;6.730;2024-01-15T01:47:17;18.75;;;3.90;;
51981;SDS011;37998;53.416;6.730;2024-01-15T01:49:43;24.38;;;4.38;;
51981;SDS011;37998;53.416;6.730;2024-01-15T01:52:10;32.97;;;5.30;;
51981;SDS011;37998;53.416;6.730;2024-01-15T01:54:36;25.00;;;4.72;;
51981;SDS011;37998;53.416;6.730;2024-01-15T01:57:03;20.83;;;4.40;;
51981;SDS011;37998;53.416;6.730;2024-01-15T01:59:31;17.42;;;4.07;;
51981;SDS011;37998;53.416;6.730;2024-01-15T02:01:59;24.25;;;3.55;;
51981;SDS011;37998;53.416;6.730;2024-01-15T02:04:28;14.50;;;3.42;;
51981;SDS011;37998;53.416;6.730;2024-01-15T02:06:53;21.95;;;3.75;;
51981;SDS011;37998;53.416;6.730;2024-01-15T02:09:19;25.05;;;4.32;;
51981;SDS011;37998;53.416;6.730;2024-01-15T02:11:48;23.15;;;3.97;;
51981;SDS011;37998;53.416;6.730;2024-01-15T02:14:14;18.08;;;4.85;;
51981;SDS011;37998;53.416;6.730;2024-01-15T02:16:41;19.10;;;4.00;;
51981;SDS011;37998;53.416;6.730;2024-01-15T02:19:06;18.70;;;3.78;;
51981;SDS011;37998;53.416;6.730;2024-01-15T02:21:32;18.67;;;3.88;;
51981;SDS011;37998;53.416;6.730;2024-01-15T02:23:58;18.48;;;3.67;;
51981;SDS011;37998;53.416;6.730;2024-01-15T02:26:24;16.20;;;3.67;;
51981;SDS011;37998;53.416;6.730;2024-01-15T02:28:51;15.45;;;4.10;;
51981;SDS011;37998;53.416;6.730;2024-01-15T02:31:18;14.65;;;4.22;;
51981;SDS011;37998;53.416;6.730;2024-01-15T02:33:44;20.27;;;4.63;;
51981;SDS011;37998;53.416;6.730;2024-01-15T02:36:13;20.45;;;4.22;;
51981;SDS011;37998;53.416;6.730;2024-01-15T02:38:38;18.98;;;3.75;;
51981;SDS011;37998;53.416;6.730;2024-01-15T02:41:04;19.63;;;3.97;;
51981;SDS011;37998;53.416;6.730;2024-01-15T02:43:30;27.13;;;4.18;;
51981;SDS011;37998;53.416;6.730;2024-01-15T02:45:56;23.67;;;4.50;;
51981;SDS011;37998;53.416;6.730;2024-01-15T02:48:22;24.40;;;4.28;;
51981;SDS011;37998;53.416;6.730;2024-01-15T02:50:48;24.92;;;5.07;;
51981;SDS011;37998;53.416;6.730;2024-01-15T02:53:14;25.42;;;4.35;;
51981;SDS011;37998;53.416;6.730;2024-01-15T02:55:39;20.58;;;4.00;;
51981;SDS011;37998;53.416;6.730;2024-01-15T02:58:05;13.40;;;3.10;;
51981;SDS011;37998;53.416;6.730;2024-01-15T03:00:33;8.50;;;2.17;;
51981;SDS011;37998;53.416;6.730;2024-01-15T03:02:59;11.80;;;2.90;;
51981;SDS011;37998;53.416;6.730;2024-01-15T03:05:24;14.27;;;3.17;;
51981;SDS011;37998;53.416;6.730;2024-01-15T03:07:50;19.50;;;3.95;;
51981;SDS011;37998;53.416;6.730;2024-01-15T03:10:16;24.33;;;4.00;;
51981;SDS011;37998;53.416;6.730;2024-01-15T03:12:42;19.42;;;4.32;;
51981;SDS011;37998;53.416;6.730;2024-01-15T03:15:08;33.83;;;5.85;;
51981;SDS011;37998;53.416;6.730;2024-01-15T03:17:34;21.98;;;4.85;;
51981;SDS011;37998;53.416;6.730;2024-01-15T03:20:00;8.27;;;2.33;;
51981;SDS011;37998;53.416;6.730;2024-01-15T03:22:26;4.85;;;1.70;;
51981;SDS011;37998;53.416;6.730;2024-01-15T03:24:52;11.45;;;2.15;;
51981;SDS011;37998;53.416;6.730;2024-01-15T03:27:18;9.13;;;2.53;;
51981;SDS011;37998;53.416;6.730;2024-01-15T03:29:44;18.65;;;2.63;;
51981;SDS011;37998;53.416;6.730;2024-01-15T03:32:10;15.48;;;3.42;;
51981;SDS011;37998;53.416;6.730;2024-01-15T03:34:36;13.57;;;3.75;;
51981;SDS011;37998;53.416;6.730;2024-01-15T03:37:02;13.60;;;3.25;;
51981;SDS011;37998;53.416;6.730;2024-01-15T03:39:28;20.00;;;4.10;;
51981;SDS011;37998;53.416;6.730;2024-01-15T03:41:55;12.70;;;2.88;;
51981;SDS011;37998;53.416;6.730;2024-01-15T03:44:20;14.48;;;2.88;;
51981;SDS011;37998;53.416;6.730;2024-01-15T03:46:46;11.73;;;3.17;;
51981;SDS011;37998;53.416;6.730;2024-01-15T03:49:12;13.82;;;2.65;;
51981;SDS011;37998;53.416;6.730;2024-01-15T03:51:38;6.05;;;2.20;;
51981;SDS011;37998;53.416;6.730;2024-01-15T03:54:04;11.07;;;2.30;;
51981;SDS011;37998;53.416;6.730;2024-01-15T03:56:30;10.27;;;2.65;;
51981;SDS011;37998;53.416;6.730;2024-01-15T03:58:56;16.48;;;2.42;;
51981;SDS011;37998;53.416;6.730;2024-01-15T04:01:21;11.07;;;2.65;;
51981;SDS011;37998;53.416;6.730;2024-01-15T04:03:47;9.88;;;3.03;;
51981;SDS011;37998;53.416;6.730;2024-01-15T04:06:13;13.95;;;2.95;;
51981;SDS011;37998;53.416;6.730;2024-01-15T04:08:39;7.75;;;2.92;;
51981;SDS011;37998;53.416;6.730;2024-01-15T04:11:05;16.45;;;3.75;;
51981;SDS011;37998;53.416;6.730;2024-01-15T04:13:34;18.30;;;3.53;;
51981;SDS011;37998;53.416;6.730;2024-01-15T04:16:00;15.05;;;2.67;;
51981;SDS011;37998;53.416;6.730;2024-01-15T04:18:26;13.05;;;2.38;;
51981;SDS011;37998;53.416;6.730;2024-01-15T04:20:52;12.07;;;2.60;;
51981;SDS011;37998;53.416;6.730;2024-01-15T04:23:18;20.30;;;3.00;;
51981;SDS011;37998;53.416;6.730;2024-01-15T04:25:44;12.90;;;3.38;;
51981;SDS011;37998;53.416;6.730;2024-01-15T04:28:11;15.23;;;2.78;;
51981;SDS011;37998;53.416;6.730;2024-01-15T04:30:37;23.05;;;2.92;;
51981;SDS011;37998;53.416;6.730;2024-01-15T04:33:03;7.20;;;2.08;;
51981;SDS011;37998;53.416;6.730;2024-01-15T04:35:30;11.18;;;2.15;;
51981;SDS011;37998;53.416;6.730;2024-01-15T04:37:56;16.48;;;3.75;;
51981;SDS011;37998;53.416;6.730;2024-01-15T04:40:22;10.20;;;2.20;;
51981;SDS011;37998;53.416;6.730;2024-01-15T04:42:48;17.58;;;3.08;;
51981;SDS011;37998;53.416;6.730;2024-01-15T04:45:14;9.55;;;2.20;;
51981;SDS011;37998;53.416;6.730;2024-01-15T04:47:39;7.47;;;1.85;;
51981;SDS011;37998;53.416;6.730;2024-01-15T04:50:05;11.70;;;1.80;;
51981;SDS011;37998;53.416;6.730;2024-01-15T04:52:31;11.07;;;1.90;;
51981;SDS011;37998;53.416;6.730;2024-01-15T04:54:57;10.85;;;2.70;;
51981;SDS011;37998;53.416;6.730;2024-01-15T04:57:23;7.07;;;1.88;;
51981;SDS011;37998;53.416;6.730;2024-01-15T04:59:49;12.52;;;2.15;;
51981;SDS011;37998;53.416;6.730;2024-01-15T05:02:15;11.90;;;3.03;;
51981;SDS011;37998;53.416;6.730;2024-01-15T05:04:41;12.45;;;3.15;;
51981;SDS011;37998;53.416;6.730;2024-01-15T05:07:06;10.48;;;2.58;;
51981;SDS011;37998;53.416;6.730;2024-01-15T05:09:33;12.70;;;3.00;;
51981;SDS011;37998;53.416;6.730;2024-01-15T05:11:59;8.55;;;1.88;;
51981;SDS011;37998;53.416;6.730;2024-01-15T05:14:25;7.07;;;1.58;;
51981;SDS011;37998;53.416;6.730;2024-01-15T05:16:51;12.02;;;2.15;;
51981;SDS011;37998;53.416;6.730;2024-01-15T05:19:17;11.00;;;2.20;;
51981;SDS011;37998;53.416;6.730;2024-01-15T05:21:43;11.82;;;2.50;;
51981;SDS011;37998;53.416;6.730;2024-01-15T05:24:09;12.35;;;2.40;;
51981;SDS011;37998;53.416;6.730;2024-01-15T05:26:35;12.15;;;2.65;;
51981;SDS011;37998;53.416;6.730;2024-01-15T05:29:01;13.00;;;3.30;;
51981;SDS011;37998;53.416;6.730;2024-01-15T05:31:27;17.40;;;4.38;;
51981;SDS011;37998;53.416;6.730;2024-01-15T05:33:52;15.73;;;3.95;;
51981;SDS011;37998;53.416;6.730;2024-01-15T05:36:18;17.73;;;3.35;;
51981;SDS011;37998;53.416;6.730;2024-01-15T05:38:44;14.40;;;2.67;;
51981;SDS011;37998;53.416;6.730;2024-01-15T05:41:10;10.35;;;3.10;;
51981;SDS011;37998;53.416;6.730;2024-01-15T05:43:36;11.40;;;3.25;;
51981;SDS011;37998;53.416;6.730;2024-01-15T05:46:02;13.02;;;3.05;;
51981;SDS011;37998;53.416;6.730;2024-01-15T05:48:28;13.80;;;2.70;;
51981;SDS011;37998;53.416;6.730;2024-01-15T05:50:54;13.20;;;2.53;;
51981;SDS011;37998;53.416;6.730;2024-01-15T05:53:20;12.10;;;2.45;;
51981;SDS011;37998;53.416;6.730;2024-01-15T05:55:45;9.35;;;2.28;;
51981;SDS011;37998;53.416;6.730;2024-01-15T05:58:11;7.65;;;2.28;;
51981;SDS011;37998;53.416;6.730;2024-01-15T06:00:37;14.52;;;2.67;;
51981;SDS011;37998;53.416;6.730;2024-01-15T06:03:03;12.45;;;2.33;;
51981;SDS011;37998;53.416;6.730;2024-01-15T06:05:29;9.55;;;2.53;;
51981;SDS011;37998;53.416;6.730;2024-01-15T06:07:55;10.95;;;2.67;;
51981;SDS011;37998;53.416;6.730;2024-01-15T06:10:21;6.78;;;2.20;;
51981;SDS011;37998;53.416;6.730;2024-01-15T06:12:47;8.75;;;3.00;;
51981;SDS011;37998;53.416;6.730;2024-01-15T06:15:13;14.20;;;2.78;;
51981;SDS011;37998;53.416;6.730;2024-01-15T06:17:39;15.13;;;2.72;;
51981;SDS011;37998;53.416;6.730;2024-01-15T06:20:05;12.55;;;2.55;;
51981;SDS011;37998;53.416;6.730;2024-01-15T06:22:31;5.57;;;2.78;;
51981;SDS011;37998;53.416;6.730;2024-01-15T06:24:57;11.50;;;4.82;;
51981;SDS011;37998;53.416;6.730;2024-01-15T06:27:23;24.55;;;8.95;;
51981;SDS011;37998;53.416;6.730;2024-01-15T06:29:49;25.42;;;11.43;;
51981;SDS011;37998;53.416;6.730;2024-01-15T06:32:15;12.98;;;4.82;;
51981;SDS011;37998;53.416;6.730;2024-01-15T06:34:40;8.13;;;3.47;;
51981;SDS011;37998;53.416;6.730;2024-01-15T06:37:06;12.88;;;4.70;;
51981;SDS011;37998;53.416;6.730;2024-01-15T06:39:32;15.80;;;5.03;;
51981;SDS011;37998;53.416;6.730;2024-01-15T06:41:58;8.02;;;2.42;;
51981;SDS011;37998;53.416;6.730;2024-01-15T06:44:24;8.70;;;2.75;;
51981;SDS011;37998;53.416;6.730;2024-01-15T06:46:50;7.97;;;2.40;;
51981;SDS011;37998;53.416;6.730;2024-01-15T06:49:17;22.38;;;2.53;;
51981;SDS011;37998;53.416;6.730;2024-01-15T06:51:42;9.05;;;2.35;;
51981;SDS011;37998;53.416;6.730;2024-01-15T06:54:08;10.13;;;2.13;;
51981;SDS011;37998;53.416;6.730;2024-01-15T06:56:34;8.98;;;3.53;;
51981;SDS011;37998;53.416;6.730;2024-01-15T06:59:00;6.15;;;2.17;;
51981;SDS011;37998;53.416;6.730;2024-01-15T07:01:26;14.45;;;3.47;;
51981;SDS011;37998;53.416;6.730;2024-01-15T07:03:52;12.80;;;3.33;;
51981;SDS011;37998;53.416;6.730;2024-01-15T07:06:17;13.02;;;2.72;;
51981;SDS011;37998;53.416;6.730;2024-01-15T07:08:43;15.75;;;3.15;;
51981;SDS011;37998;53.416;6.730;2024-01-15T07:11:09;16.17;;;3.75;;
51981;SDS011;37998;53.416;6.730;2024-01-15T07:13:36;11.40;;;3.22;;
51981;SDS011;37998;53.416;6.730;2024-01-15T07:16:02;18.70;;;3.78;;
51981;SDS011;37998;53.416;6.730;2024-01-15T07:18:28;16.65;;;5.80;;
51981;SDS011;37998;53.416;6.730;2024-01-15T07:20:54;15.35;;;3.65;;
51981;SDS011;37998;53.416;6.730;2024-01-15T07:23:20;15.77;;;3.45;;
51981;SDS011;37998;53.416;6.730;2024-01-15T07:25:46;15.50;;;3.78;;
51981;SDS011;37998;53.416;6.730;2024-01-15T07:28:11;21.35;;;3.88;;
51981;SDS011;37998;53.416;6.730;2024-01-15T07:30:37;22.65;;;4.85;;
51981;SDS011;37998;53.416;6.730;2024-01-15T07:33:06;17.92;;;3.78;;
51981;SDS011;37998;53.416;6.730;2024-01-15T07:35:32;21.42;;;3.95;;
51981;SDS011;37998;53.416;6.730;2024-01-15T07:37:58;13.05;;;3.35;;
51981;SDS011;37998;53.416;6.730;2024-01-15T07:40:24;23.25;;;4.00;;
51981;SDS011;37998;53.416;6.730;2024-01-15T07:42:50;21.63;;;3.92;;
51981;SDS011;37998;53.416;6.730;2024-01-15T07:45:16;16.50;;;2.90;;
51981;SDS011;37998;53.416;6.730;2024-01-15T07:47:43;19.90;;;3.92;;
51981;SDS011;37998;53.416;6.730;2024-01-15T07:50:09;18.83;;;4.57;;
51981;SDS011;37998;53.416;6.730;2024-01-15T07:52:35;18.63;;;3.72;;
51981;SDS011;37998;53.416;6.730;2024-01-15T07:55:01;18.27;;;4.13;;
51981;SDS011;37998;53.416;6.730;2024-01-15T07:57:29;17.05;;;3.50;;
51981;SDS011;37998;53.416;6.730;2024-01-15T07:59:55;16.23;;;3.97;;
51981;SDS011;37998;53.416;6.730;2024-01-15T08:02:20;12.95;;;2.53;;
51981;SDS011;37998;53.416;6.730;2024-01-15T08:04:47;11.82;;;2.10;;
51981;SDS011;37998;53.416;6.730;2024-01-15T08:07:13;14.30;;;3.15;;
51981;SDS011;37998;53.416;6.730;2024-01-15T08:09:39;16.20;;;3.10;;
51981;SDS011;37998;53.416;6.730;2024-01-15T08:12:05;8.82;;;2.53;;
51981;SDS011;37998;53.416;6.730;2024-01-15T08:14:31;3.63;;;2.03;;
51981;SDS011;37998;53.416;6.730;2024-01-15T08:16:57;3.90;;;1.13;;
51981;SDS011;37998;53.416;6.730;2024-01-15T08:19:23;11.63;;;2.17;;
51981;SDS011;37998;53.416;6.730;2024-01-15T08:21:49;7.40;;;1.48;;
51981;SDS011;37998;53.416;6.730;2024-01-15T08:24:15;7.32;;;1.90;;
51981;SDS011;37998;53.416;6.730;2024-01-15T08:26:42;12.55;;;2.60;;
51981;SDS011;37998;53.416;6.730;2024-01-15T08:29:08;13.43;;;3.15;;
51981;SDS011;37998;53.416;6.730;2024-01-15T08:31:34;7.43;;;2.47;;
51981;SDS011;37998;53.416;6.730;2024-01-15T08:33:59;9.40;;;2.40;;
51981;SDS011;37998;53.416;6.730;2024-01-15T08:36:27;18.13;;;3.13;;
51981;SDS011;37998;53.416;6.730;2024-01-15T08:38:54;16.08;;;2.88;;
51981;SDS011;37998;53.416;6.730;2024-01-15T08:41:20;14.95;;;3.33;;
51981;SDS011;37998;53.416;6.730;2024-01-15T08:43:46;18.20;;;3.03;;
51981;SDS011;37998;53.416;6.730;2024-01-15T08:46:13;13.32;;;2.70;;
51981;SDS011;37998;53.416;6.730;2024-01-15T08:48:39;7.43;;;1.73;;
51981;SDS011;37998;53.416;6.730;2024-01-15T08:51:05;5.70;;;1.55;;
51981;SDS011;37998;53.416;6.730;2024-01-15T08:53:31;8.13;;;2.08;;
51981;SDS011;37998;53.416;6.730;2024-01-15T08:55:58;4.75;;;2.50;;
51981;SDS011;37998;53.416;6.730;2024-01-15T08:58:25;6.00;;;1.90;;
51981;SDS011;37998;53.416;6.730;2024-01-15T09:00:51;7.75;;;1.67;;
51981;SDS011;37998;53.416;6.730;2024-01-15T09:03:17;14.80;;;3.28;;
51981;SDS011;37998;53.416;6.730;2024-01-15T09:05:45;11.57;;;2.67;;
51981;SDS011;37998;53.416;6.730;2024-01-15T09:08:11;17.40;;;3.78;;
51981;SDS011;37998;53.416;6.730;2024-01-15T09:10:37;15.88;;;2.78;;
51981;SDS011;37998;53.416;6.730;2024-01-15T09:13:03;10.60;;;2.50;;
51981;SDS011;37998;53.416;6.730;2024-01-15T09:15:29;15.82;;;2.72;;
51981;SDS011;37998;53.416;6.730;2024-01-15T09:17:55;10.40;;;2.47;;
51981;SDS011;37998;53.416;6.730;2024-01-15T09:20:23;12.73;;;3.00;;
51981;SDS011;37998;53.416;6.730;2024-01-15T09:22:51;10.93;;;2.63;;
51981;SDS011;37998;53.416;6.730;2024-01-15T09:25:17;5.30;;;1.85;;
51981;SDS011;37998;53.416;6.730;2024-01-15T09:27:44;5.30;;;1.90;;
51981;SDS011;37998;53.416;6.730;2024-01-15T09:30:10;9.40;;;2.25;;
51981;SDS011;37998;53.416;6.730;2024-01-15T09:32:36;6.32;;;1.90;;
51981;SDS011;37998;53.416;6.730;2024-01-15T09:35:02;8.02;;;1.75;;
51981;SDS011;37998;53.416;6.730;2024-01-15T09:37:28;6.40;;;2.03;;
51981;SDS011;37998;53.416;6.730;2024-01-15T09:39:54;9.52;;;2.30;;
51981;SDS011;37998;53.416;6.730;2024-01-15T09:42:21;7.97;;;2.17;;
51981;SDS011;37998;53.416;6.730;2024-01-15T09:44:50;5.97;;;2.08;;
51981;SDS011;37998;53.416;6.730;2024-01-15T09:47:17;7.03;;;2.10;;
51981;SDS011;37998;53.416;6.730;2024-01-15T09:49:44;7.47;;;1.83;;
51981;SDS011;37998;53.416;6.730;2024-01-15T09:52:10;2.90;;;1.27;;
51981;SDS011;37998;53.416;6.730;2024-01-15T09:54:37;3.60;;;1.60;;
51981;SDS011;37998;53.416;6.730;2024-01-15T09:57:04;7.30;;;2.00;;
51981;SDS011;37998;53.416;6.730;2024-01-15T09:59:30;11.07;;;1.70;;
51981;SDS011;37998;53.416;6.730;2024-01-15T10:01:57;9.77;;;2.20;;
51981;SDS011;37998;53.416;6.730;2024-01-15T10:04:24;6.07;;;1.92;;
51981;SDS011;37998;53.416;6.730;2024-01-15T10:06:50;7.82;;;2.38;;
51981;SDS011;37998;53.416;6.730;2024-01-15T10:09:17;6.63;;;1.60;;
51981;SDS011;37998;53.416;6.730;2024-01-15T10:11:44;3.83;;;1.35;;
51981;SDS011;37998;53.416;6.730;2024-01-15T10:14:10;5.20;;;1.45;;
51981;SDS011;37998;53.416;6.730;2024-01-15T10:16:40;9.45;;;1.48;;
51981;SDS011;37998;53.416;6.730;2024-01-15T10:19:10;5.38;;;1.83;;
51981;SDS011;37998;53.416;6.730;2024-01-15T10:21:36;7.10;;;1.50;;
51981;SDS011;37998;53.416;6.730;2024-01-15T10:24:03;6.43;;;1.50;;
51981;SDS011;37998;53.416;6.730;2024-01-15T10:26:33;10.63;;;2.33;;
51981;SDS011;37998;53.416;6.730;2024-01-15T10:28:59;9.70;;;2.28;;
51981;SDS011;37998;53.416;6.730;2024-01-15T10:31:25;5.03;;;1.45;;
51981;SDS011;37998;53.416;6.730;2024-01-15T10:33:52;7.93;;;1.80;;
51981;SDS011;37998;53.416;6.730;2024-01-15T10:36:18;5.18;;;1.50;;
51981;SDS011;37998;53.416;6.730;2024-01-15T10:38:44;6.47;;;2.38;;
51981;SDS011;37998;53.416;6.730;2024-01-15T10:41:11;8.35;;;1.65;;
51981;SDS011;37998;53.416;6.730;2024-01-15T10:43:37;4.22;;;1.50;;
51981;SDS011;37998;53.416;6.730;2024-01-15T10:46:03;9.25;;;1.90;;
51981;SDS011;37998;53.416;6.730;2024-01-15T10:48:29;10.30;;;2.13;;
51981;SDS011;37998;53.416;6.730;2024-01-15T10:50:59;11.48;;;2.20;;
51981;SDS011;37998;53.416;6.730;2024-01-15T10:53:25;11.65;;;1.90;;
51981;SDS011;37998;53.416;6.730;2024-01-15T10:55:53;9.90;;;1.90;;
51981;SDS011;37998;53.416;6.730;2024-01-15T10:58:20;12.05;;;1.80;;
51981;SDS011;37998;53.416;6.730;2024-01-15T11:00:46;10.32;;;1.73;;
51981;SDS011;37998;53.416;6.730;2024-01-15T11:03:12;8.00;;;3.13;;
51981;SDS011;37998;53.416;6.730;2024-01-15T11:05:39;11.30;;;1.95;;
51981;SDS011;37998;53.416;6.730;2024-01-15T11:08:09;7.40;;;1.70;;
51981;SDS011;37998;53.416;6.730;2024-01-15T11:10:50;9.73;;;1.55;;
51981;SDS011;37998;53.416;6.730;2024-01-15T11:16:02;9.25;;;1.90;;
51981;SDS011;37998;53.416;6.730;2024-01-15T11:18:42;4.72;;;1.85;;
51981;SDS011;37998;53.416;6.730;2024-01-15T11:21:26;4.47;;;1.40;;
51981;SDS011;37998;53.416;6.730;2024-01-15T11:28:57;8.38;;;1.70;;
51981;SDS011;37998;53.416;6.730;2024-01-15T11:31:28;6.93;;;1.50;;
51981;SDS011;37998;53.416;6.730;2024-01-15T11:34:15;5.07;;;1.80;;
51981;SDS011;37998;53.416;6.730;2024-01-15T11:41:54;7.00;;;1.70;;
51981;SDS011;37998;53.416;6.730;2024-01-15T11:44:21;6.97;;;1.40;;
51981;SDS011;37998;53.416;6.730;2024-01-15T11:47:06;6.18;;;1.25;;
51981;SDS011;37998;53.416;6.730;2024-01-15T11:52:22;10.98;;;1.63;;
51981;SDS011;37998;53.416;6.730;2024-01-15T12:00:05;3.55;;;1.50;;
51981;SDS011;37998;53.416;6.730;2024-01-15T12:02:41;7.47;;;2.05;;
51981;SDS011;37998;53.416;6.730;2024-01-15T12:05:12;7.65;;;1.70;;
51981;SDS011;37998;53.416;6.730;2024-01-15T12:07:40;5.70;;;1.13;;
51981;SDS011;37998;53.416;6.730;2024-01-15T12:10:09;3.25;;;1.33;;
51981;SDS011;37998;53.416;6.730;2024-01-15T12:15:22;7.32;;;1.42;;
51981;SDS011;37998;53.416;6.730;2024-01-15T12:17:49;5.63;;;1.92;;
51981;SDS011;37998;53.416;6.730;2024-01-15T12:20:15;11.32;;;2.00;;
51981;SDS011;37998;53.416;6.730;2024-01-15T12:22:42;5.85;;;1.52;;
51981;SDS011;37998;53.416;6.730;2024-01-15T12:25:09;8.90;;;1.67;;
51981;SDS011;37998;53.416;6.730;2024-01-15T12:27:35;10.80;;;3.40;;
51981;SDS011;37998;53.416;6.730;2024-01-15T12:30:01;5.50;;;1.50;;
51981;SDS011;37998;53.416;6.730;2024-01-15T12:32:28;7.75;;;1.48;;
51981;SDS011;37998;53.416;6.730;2024-01-15T12:34:54;9.93;;;2.10;;
51981;SDS011;37998;53.416;6.730;2024-01-15T12:37:20;9.10;;;1.65;;
51981;SDS011;37998;53.416;6.730;2024-01-15T12:39:47;7.18;;;1.58;;
51981;SDS011;37998;53.416;6.730;2024-01-15T12:42:16;5.25;;;1.45;;
51981;SDS011;37998;53.416;6.730;2024-01-15T12:44:43;9.30;;;2.15;;
51981;SDS011;37998;53.416;6.730;2024-01-15T12:47:10;5.35;;;2.55;;
51981;SDS011;37998;53.416;6.730;2024-01-15T12:49:36;8.75;;;2.03;;
51981;SDS011;37998;53.416;6.730;2024-01-15T12:52:03;13.57;;;2.40;;
51981;SDS011;37998;53.416;6.730;2024-01-15T12:54:29;7.22;;;1.85;;
51981;SDS011;37998;53.416;6.730;2024-01-15T12:56:54;5.75;;;2.08;;
51981;SDS011;37998;53.416;6.730;2024-01-15T12:59:20;5.72;;;1.50;;
51981;SDS011;37998;53.416;6.730;2024-01-15T13:01:46;6.55;;;1.48;;
51981;SDS011;37998;53.416;6.730;2024-01-15T13:04:20;8.30;;;1.50;;
51981;SDS011;37998;53.416;6.730;2024-01-15T13:06:50;7.78;;;1.77;;
51981;SDS011;37998;53.416;6.730;2024-01-15T13:09:17;3.05;;;1.50;;
51981;SDS011;37998;53.416;6.730;2024-01-15T13:11:43;10.43;;;2.67;;
51981;SDS011;37998;53.416;6.730;2024-01-15T13:14:10;8.57;;;1.75;;
51981;SDS011;37998;53.416;6.730;2024-01-15T13:16:36;14.15;;;2.67;;
51981;SDS011;37998;53.416;6.730;2024-01-15T13:19:02;13.00;;;2.40;;
51981;SDS011;37998;53.416;6.730;2024-01-15T13:21:29;12.35;;;2.60;;
51981;SDS011;37998;53.416;6.730;2024-01-15T13:23:55;7.78;;;2.10;;
51981;SDS011;37998;53.416;6.730;2024-01-15T13:26:21;16.48;;;2.97;;
51981;SDS011;37998;53.416;6.730;2024-01-15T13:28:47;15.63;;;3.13;;
51981;SDS011;37998;53.416;6.730;2024-01-15T13:31:13;10.05;;;2.20;;
51981;SDS011;37998;53.416;6.730;2024-01-15T13:33:40;14.70;;;2.35;;
51981;SDS011;37998;53.416;6.730;2024-01-15T13:36:05;13.32;;;2.65;;
51981;SDS011;37998;53.416;6.730;2024-01-15T13:38:38;10.57;;;2.83;;
51981;SDS011;37998;53.416;6.730;2024-01-15T13:41:04;13.65;;;2.20;;
51981;SDS011;37998;53.416;6.730;2024-01-15T13:43:31;13.27;;;2.95;;
51981;SDS011;37998;53.416;6.730;2024-01-15T13:45:58;6.10;;;2.03;;
51981;SDS011;37998;53.416;6.730;2024-01-15T13:48:25;6.13;;;1.90;;
51981;SDS011;37998;53.416;6.730;2024-01-15T13:50:52;5.18;;;1.42;;
51981;SDS011;37998;53.416;6.730;2024-01-15T13:53:18;6.80;;;1.52;;
51981;SDS011;37998;53.416;6.730;2024-01-15T13:55:44;7.22;;;1.80;;
51981;SDS011;37998;53.416;6.730;2024-01-15T13:58:10;8.30;;;1.50;;
51981;SDS011;37998;53.416;6.730;2024-01-15T14:00:36;9.57;;;1.98;;
51981;SDS011;37998;53.416;6.730;2024-01-15T14:03:02;7.63;;;2.42;;
51981;SDS011;37998;53.416;6.730;2024-01-15T14:05:28;15.32;;;2.80;;
51981;SDS011;37998;53.416;6.730;2024-01-15T14:07:54;11.38;;;3.00;;
51981;SDS011;37998;53.416;6.730;2024-01-15T14:10:20;15.65;;;2.15;;
51981;SDS011;37998;53.416;6.730;2024-01-15T14:12:46;7.13;;;1.63;;
51981;SDS011;37998;53.416;6.730;2024-01-15T14:15:12;7.60;;;2.22;;
51981;SDS011;37998;53.416;6.730;2024-01-15T14:17:38;5.78;;;1.80;;
51981;SDS011;37998;53.416;6.730;2024-01-15T14:20:04;9.38;;;2.47;;
51981;SDS011;37998;53.416;6.730;2024-01-15T14:22:31;8.48;;;1.67;;
51981;SDS011;37998;53.416;6.730;2024-01-15T14:24:57;8.48;;;1.70;;
51981;SDS011;37998;53.416;6.730;2024-01-15T14:27:23;10.77;;;2.20;;
51981;SDS011;37998;53.416;6.730;2024-01-15T14:29:49;10.57;;;2.88;;
51981;SDS011;37998;53.416;6.730;2024-01-15T14:32:15;9.52;;;2.38;;
51981;SDS011;37998;53.416;6.730;2024-01-15T14:34:41;5.03;;;1.58;;
51981;SDS011;37998;53.416;6.730;2024-01-15T14:37:06;5.38;;;1.60;;
51981;SDS011;37998;53.416;6.730;2024-01-15T14:39:32;6.35;;;1.45;;
51981;SDS011;37998;53.416;6.730;2024-01-15T14:41:59;5.97;;;1.33;;
51981;SDS011;37998;53.416;6.730;2024-01-15T14:44:26;6.20;;;1.52;;
51981;SDS011;37998;53.416;6.730;2024-01-15T14:46:54;4.00;;;1.27;;
51981;SDS011;37998;53.416;6.730;2024-01-15T14:49:21;2.45;;;1.17;;
51981;SDS011;37998;53.416;6.730;2024-01-15T14:51:47;1.25;;;1.02;;
51981;SDS011;37998;53.416;6.730;2024-01-15T14:54:14;4.22;;;1.30;;
51981;SDS011;37998;53.416;6.730;2024-01-15T14:56:40;5.00;;;1.10;;
51981;SDS011;37998;53.416;6.730;2024-01-15T14:59:06;2.60;;;1.08;;